Terminal Aerodrome Forecast
Issued by NWS Atlanta, GA

Home | Current Version | Previous Version | Text Only | Print | Product List | Glossary On
Versions: 1 2 3 4 5 6 7 8 9 10 11 12 13 14 15 16 17 18 19 20 21 22 23 24 25 26 27 28 29 30 31 32 33 34 35 36 37 38
365
FTUS42 KFFC 262155 AAB
TAFATL
TAF AMD
KATL 262155Z 2622/2724 19007KT P6SM FEW080
     FM270100 21003KT P6SM FEW120
     FM271500 23005KT P6SM SCT040 PROB30 2719/2723 VRB12KT 5SM TSRA
      BKN025CB=

USA.gov is the U.S. government's official web portal to all federal, state and local government web resources and services.